sensor_id;sensor_type;location;lat;lon;timestamp;P1;durP1;ratioP1;P2;durP2;ratioP2
61254;SDS011;47128;47.530;8.584;2022-12-18T00:01:43;57.00;;;30.75;;
61254;SDS011;47128;47.530;8.584;2022-12-18T00:04:15;59.03;;;28.83;;
61254;SDS011;47128;47.530;8.584;2022-12-18T00:06:45;61.15;;;28.85;;
61254;SDS011;47128;47.530;8.584;2022-12-18T00:09:10;54.70;;;28.08;;
61254;SDS011;47128;47.530;8.584;2022-12-18T00:11:36;61.78;;;29.45;;
61254;SDS011;47128;47.530;8.584;2022-12-18T00:14:02;55.65;;;28.83;;
61254;SDS011;47128;47.530;8.584;2022-12-18T00:16:28;63.03;;;28.88;;
61254;SDS011;47128;47.530;8.584;2022-12-18T00:18:59;56.60;;;28.40;;
61254;SDS011;47128;47.530;8.584;2022-12-18T00:21:25;61.53;;;29.75;;
61254;SDS011;47128;47.530;8.584;2022-12-18T00:23:52;52.55;;;27.83;;
61254;SDS011;47128;47.530;8.584;2022-12-18T00:26:25;56.33;;;29.08;;
61254;SDS011;47128;47.530;8.584;2022-12-18T00:28:54;55.42;;;28.73;;
61254;SDS011;47128;47.530;8.584;2022-12-18T00:31:22;58.92;;;28.88;;
61254;SDS011;47128;47.530;8.584;2022-12-18T00:33:49;61.92;;;28.33;;
61254;SDS011;47128;47.530;8.584;2022-12-18T00:36:22;60.47;;;29.50;;
61254;SDS011;47128;47.530;8.584;2022-12-18T00:38:50;63.00;;;29.23;;
61254;SDS011;47128;47.530;8.584;2022-12-18T00:41:16;63.40;;;30.50;;
61254;SDS011;47128;47.530;8.584;2022-12-18T00:44:03;59.40;;;29.92;;
61254;SDS011;47128;47.530;8.584;2022-12-18T00:46:29;61.58;;;29.33;;
61254;SDS011;47128;47.530;8.584;2022-12-18T00:48:55;57.35;;;30.05;;
61254;SDS011;47128;47.530;8.584;2022-12-18T00:51:21;55.95;;;29.50;;
61254;SDS011;47128;47.530;8.584;2022-12-18T00:53:46;60.95;;;30.42;;
61254;SDS011;47128;47.530;8.584;2022-12-18T00:56:12;68.93;;;31.60;;
61254;SDS011;47128;47.530;8.584;2022-12-18T00:58:37;65.70;;;31.13;;
61254;SDS011;47128;47.530;8.584;2022-12-18T01:01:04;67.05;;;30.48;;
61254;SDS011;47128;47.530;8.584;2022-12-18T01:03:30;65.32;;;32.30;;
61254;SDS011;47128;47.530;8.584;2022-12-18T01:05:55;61.47;;;30.20;;
61254;SDS011;47128;47.530;8.584;2022-12-18T01:08:21;65.28;;;30.83;;
61254;SDS011;47128;47.530;8.584;2022-12-18T01:10:47;61.55;;;30.77;;
61254;SDS011;47128;47.530;8.584;2022-12-18T01:13:12;59.10;;;30.08;;
61254;SDS011;47128;47.530;8.584;2022-12-18T01:15:38;66.95;;;32.67;;
61254;SDS011;47128;47.530;8.584;2022-12-18T01:18:04;65.82;;;30.70;;
61254;SDS011;47128;47.530;8.584;2022-12-18T01:20:31;64.45;;;31.73;;
61254;SDS011;47128;47.530;8.584;2022-12-18T01:22:56;69.75;;;31.80;;
61254;SDS011;47128;47.530;8.584;2022-12-18T01:25:22;65.68;;;31.95;;
61254;SDS011;47128;47.530;8.584;2022-12-18T01:27:47;70.00;;;31.55;;
61254;SDS011;47128;47.530;8.584;2022-12-18T01:30:13;62.03;;;31.80;;
61254;SDS011;47128;47.530;8.584;2022-12-18T01:32:39;65.95;;;32.45;;
61254;SDS011;47128;47.530;8.584;2022-12-18T01:35:04;70.40;;;33.58;;
61254;SDS011;47128;47.530;8.584;2022-12-18T01:37:31;66.88;;;31.27;;
61254;SDS011;47128;47.530;8.584;2022-12-18T01:39:56;64.70;;;32.05;;
61254;SDS011;47128;47.530;8.584;2022-12-18T01:42:22;66.75;;;33.28;;
61254;SDS011;47128;47.530;8.584;2022-12-18T01:44:55;75.95;;;36.55;;
61254;SDS011;47128;47.530;8.584;2022-12-18T01:50:08;72.50;;;33.90;;
61254;SDS011;47128;47.530;8.584;2022-12-18T01:52:42;74.22;;;33.53;;
61254;SDS011;47128;47.530;8.584;2022-12-18T01:55:12;71.35;;;32.58;;
61254;SDS011;47128;47.530;8.584;2022-12-18T01:57:43;72.18;;;32.38;;
61254;SDS011;47128;47.530;8.584;2022-12-18T02:00:14;75.40;;;34.63;;
61254;SDS011;47128;47.530;8.584;2022-12-18T02:02:43;70.30;;;32.25;;
61254;SDS011;47128;47.530;8.584;2022-12-18T02:05:10;77.15;;;33.30;;
61254;SDS011;47128;47.530;8.584;2022-12-18T02:08:00;80.18;;;32.78;;
61254;SDS011;47128;47.530;8.584;2022-12-18T02:11:01;81.78;;;33.75;;
61254;SDS011;47128;47.530;8.584;2022-12-18T02:13:46;68.03;;;31.25;;
61254;SDS011;47128;47.530;8.584;2022-12-18T02:18:59;78.53;;;33.70;;
61254;SDS011;47128;47.530;8.584;2022-12-18T02:21:45;78.43;;;34.13;;
61254;SDS011;47128;47.530;8.584;2022-12-18T02:24:23;81.78;;;35.20;;
61254;SDS011;47128;47.530;8.584;2022-12-18T02:27:01;79.20;;;32.85;;
61254;SDS011;47128;47.530;8.584;2022-12-18T02:29:33;75.88;;;32.95;;
61254;SDS011;47128;47.530;8.584;2022-12-18T02:32:05;79.55;;;34.58;;
61254;SDS011;47128;47.530;8.584;2022-12-18T02:34:36;75.97;;;31.63;;
61254;SDS011;47128;47.530;8.584;2022-12-18T02:37:04;74.25;;;33.33;;
61254;SDS011;47128;47.530;8.584;2022-12-18T02:39:36;77.28;;;33.30;;
61254;SDS011;47128;47.530;8.584;2022-12-18T02:42:04;81.88;;;33.67;;
61254;SDS011;47128;47.530;8.584;2022-12-18T02:44:33;82.00;;;33.05;;
61254;SDS011;47128;47.530;8.584;2022-12-18T02:47:09;75.50;;;33.10;;
61254;SDS011;47128;47.530;8.584;2022-12-18T02:52:49;75.88;;;33.72;;
61254;SDS011;47128;47.530;8.584;2022-12-18T03:00:58;73.88;;;30.92;;
61254;SDS011;47128;47.530;8.584;2022-12-18T03:04:15;77.13;;;32.03;;
61254;SDS011;47128;47.530;8.584;2022-12-18T03:06:27;69.40;;;30.95;;
61254;SDS011;47128;47.530;8.584;2022-12-18T03:09:19;69.78;;;30.50;;
61254;SDS011;47128;47.530;8.584;2022-12-18T03:14:38;68.30;;;30.80;;
61254;SDS011;47128;47.530;8.584;2022-12-18T03:17:07;80.30;;;32.63;;
61254;SDS011;47128;47.530;8.584;2022-12-18T03:19:38;74.28;;;33.40;;
61254;SDS011;47128;47.530;8.584;2022-12-18T03:22:05;73.25;;;32.90;;
61254;SDS011;47128;47.530;8.584;2022-12-18T03:24:32;82.22;;;33.55;;
61254;SDS011;47128;47.530;8.584;2022-12-18T03:27:00;75.80;;;33.42;;
61254;SDS011;47128;47.530;8.584;2022-12-18T03:29:30;75.22;;;32.38;;
61254;SDS011;47128;47.530;8.584;2022-12-18T03:32:09;72.07;;;33.78;;
61254;SDS011;47128;47.530;8.584;2022-12-18T03:34:39;69.63;;;31.25;;
61254;SDS011;47128;47.530;8.584;2022-12-18T03:37:07;75.85;;;33.42;;
61254;SDS011;47128;47.530;8.584;2022-12-18T03:39:33;71.85;;;33.78;;
61254;SDS011;47128;47.530;8.584;2022-12-18T03:45:19;73.20;;;33.00;;
61254;SDS011;47128;47.530;8.584;2022-12-18T03:50:36;82.07;;;34.13;;
61254;SDS011;47128;47.530;8.584;2022-12-18T03:56:12;79.82;;;32.65;;
61254;SDS011;47128;47.530;8.584;2022-12-18T03:58:41;78.45;;;31.88;;
61254;SDS011;47128;47.530;8.584;2022-12-18T04:01:09;78.40;;;32.42;;
61254;SDS011;47128;47.530;8.584;2022-12-18T04:03:38;81.28;;;34.95;;
61254;SDS011;47128;47.530;8.584;2022-12-18T04:06:04;74.63;;;33.10;;
61254;SDS011;47128;47.530;8.584;2022-12-18T04:08:32;80.97;;;33.88;;
61254;SDS011;47128;47.530;8.584;2022-12-18T04:10:59;84.53;;;32.95;;
61254;SDS011;47128;47.530;8.584;2022-12-18T04:13:30;76.13;;;32.30;;
61254;SDS011;47128;47.530;8.584;2022-12-18T04:15:59;72.93;;;32.05;;
61254;SDS011;47128;47.530;8.584;2022-12-18T04:18:25;84.78;;;34.58;;
61254;SDS011;47128;47.530;8.584;2022-12-18T04:20:50;85.40;;;34.33;;
61254;SDS011;47128;47.530;8.584;2022-12-18T04:23:16;79.28;;;32.42;;
61254;SDS011;47128;47.530;8.584;2022-12-18T04:25:41;74.93;;;32.55;;
61254;SDS011;47128;47.530;8.584;2022-12-18T04:28:07;83.07;;;35.10;;
61254;SDS011;47128;47.530;8.584;2022-12-18T04:30:33;76.95;;;32.05;;
61254;SDS011;47128;47.530;8.584;2022-12-18T04:32:58;76.97;;;32.85;;
61254;SDS011;47128;47.530;8.584;2022-12-18T04:35:24;79.38;;;32.50;;
61254;SDS011;47128;47.530;8.584;2022-12-18T04:37:50;84.78;;;34.88;;
61254;SDS011;47128;47.530;8.584;2022-12-18T04:40:15;77.25;;;34.35;;
61254;SDS011;47128;47.530;8.584;2022-12-18T04:42:41;84.20;;;33.00;;
61254;SDS011;47128;47.530;8.584;2022-12-18T04:45:07;77.45;;;32.55;;
61254;SDS011;47128;47.530;8.584;2022-12-18T04:47:33;87.03;;;35.45;;
61254;SDS011;47128;47.530;8.584;2022-12-18T04:49:58;81.68;;;35.38;;
61254;SDS011;47128;47.530;8.584;2022-12-18T04:52:24;87.50;;;33.00;;
61254;SDS011;47128;47.530;8.584;2022-12-18T04:54:50;82.28;;;32.53;;
61254;SDS011;47128;47.530;8.584;2022-12-18T04:57:16;83.72;;;34.60;;
61254;SDS011;47128;47.530;8.584;2022-12-18T04:59:43;84.20;;;32.47;;
61254;SDS011;47128;47.530;8.584;2022-12-18T05:02:09;78.63;;;33.88;;
61254;SDS011;47128;47.530;8.584;2022-12-18T05:04:34;83.88;;;34.78;;
61254;SDS011;47128;47.530;8.584;2022-12-18T05:07:00;85.32;;;34.42;;
61254;SDS011;47128;47.530;8.584;2022-12-18T05:09:25;83.22;;;34.72;;
61254;SDS011;47128;47.530;8.584;2022-12-18T05:11:51;83.45;;;34.80;;
61254;SDS011;47128;47.530;8.584;2022-12-18T05:14:16;88.03;;;33.88;;
61254;SDS011;47128;47.530;8.584;2022-12-18T05:16:42;80.20;;;34.45;;
61254;SDS011;47128;47.530;8.584;2022-12-18T05:19:08;80.15;;;32.75;;
61254;SDS011;47128;47.530;8.584;2022-12-18T05:21:33;81.25;;;34.35;;
61254;SDS011;47128;47.530;8.584;2022-12-18T05:23:59;88.13;;;35.42;;
61254;SDS011;47128;47.530;8.584;2022-12-18T05:26:24;84.63;;;34.17;;
61254;SDS011;47128;47.530;8.584;2022-12-18T05:28:50;88.18;;;33.83;;
61254;SDS011;47128;47.530;8.584;2022-12-18T05:31:15;82.22;;;34.40;;
61254;SDS011;47128;47.530;8.584;2022-12-18T05:33:41;78.32;;;33.45;;
61254;SDS011;47128;47.530;8.584;2022-12-18T05:36:07;80.55;;;34.85;;
61254;SDS011;47128;47.530;8.584;2022-12-18T05:38:34;81.30;;;34.00;;
61254;SDS011;47128;47.530;8.584;2022-12-18T05:41:01;80.68;;;32.80;;
61254;SDS011;47128;47.530;8.584;2022-12-18T05:43:27;87.38;;;32.83;;
61254;SDS011;47128;47.530;8.584;2022-12-18T05:45:53;83.57;;;33.10;;
61254;SDS011;47128;47.530;8.584;2022-12-18T05:48:19;79.93;;;33.17;;
61254;SDS011;47128;47.530;8.584;2022-12-18T05:50:46;82.65;;;33.72;;
61254;SDS011;47128;47.530;8.584;2022-12-18T05:53:13;87.85;;;32.38;;
61254;SDS011;47128;47.530;8.584;2022-12-18T05:55:41;84.55;;;34.97;;
61254;SDS011;47128;47.530;8.584;2022-12-18T05:58:07;83.80;;;33.53;;
61254;SDS011;47128;47.530;8.584;2022-12-18T06:00:36;84.57;;;34.55;;
61254;SDS011;47128;47.530;8.584;2022-12-18T06:03:05;86.30;;;36.80;;
61254;SDS011;47128;47.530;8.584;2022-12-18T06:05:39;79.43;;;32.13;;
61254;SDS011;47128;47.530;8.584;2022-12-18T06:08:06;82.10;;;34.30;;
61254;SDS011;47128;47.530;8.584;2022-12-18T06:10:32;82.07;;;35.17;;
61254;SDS011;47128;47.530;8.584;2022-12-18T06:12:57;83.03;;;37.20;;
61254;SDS011;47128;47.530;8.584;2022-12-18T06:15:24;82.22;;;32.53;;
61254;SDS011;47128;47.530;8.584;2022-12-18T06:17:50;86.82;;;35.33;;
61254;SDS011;47128;47.530;8.584;2022-12-18T06:20:15;85.03;;;33.60;;
61254;SDS011;47128;47.530;8.584;2022-12-18T06:22:41;81.72;;;35.40;;
61254;SDS011;47128;47.530;8.584;2022-12-18T06:25:07;91.40;;;35.70;;
61254;SDS011;47128;47.530;8.584;2022-12-18T06:27:33;96.97;;;34.80;;
61254;SDS011;47128;47.530;8.584;2022-12-18T06:29:58;83.07;;;33.83;;
61254;SDS011;47128;47.530;8.584;2022-12-18T06:32:24;87.95;;;34.78;;
61254;SDS011;47128;47.530;8.584;2022-12-18T06:34:50;91.03;;;34.20;;
61254;SDS011;47128;47.530;8.584;2022-12-18T06:37:16;80.07;;;33.20;;
61254;SDS011;47128;47.530;8.584;2022-12-18T06:39:41;77.97;;;33.30;;
61254;SDS011;47128;47.530;8.584;2022-12-18T06:42:07;88.55;;;35.80;;
61254;SDS011;47128;47.530;8.584;2022-12-18T06:44:33;78.03;;;34.28;;
61254;SDS011;47128;47.530;8.584;2022-12-18T06:46:58;78.72;;;32.40;;
61254;SDS011;47128;47.530;8.584;2022-12-18T06:49:24;84.60;;;33.75;;
61254;SDS011;47128;47.530;8.584;2022-12-18T06:51:50;80.18;;;34.13;;
61254;SDS011;47128;47.530;8.584;2022-12-18T06:54:15;73.00;;;32.75;;
61254;SDS011;47128;47.530;8.584;2022-12-18T06:56:41;78.80;;;34.10;;
61254;SDS011;47128;47.530;8.584;2022-12-18T06:59:06;81.70;;;32.72;;
61254;SDS011;47128;47.530;8.584;2022-12-18T07:01:32;92.10;;;37.70;;
61254;SDS011;47128;47.530;8.584;2022-12-18T07:03:57;78.15;;;33.55;;
61254;SDS011;47128;47.530;8.584;2022-12-18T07:06:24;82.70;;;33.67;;
61254;SDS011;47128;47.530;8.584;2022-12-18T07:08:50;81.13;;;33.47;;
61254;SDS011;47128;47.530;8.584;2022-12-18T07:11:17;78.50;;;33.80;;
61254;SDS011;47128;47.530;8.584;2022-12-18T07:13:43;85.70;;;35.97;;
61254;SDS011;47128;47.530;8.584;2022-12-18T07:16:11;86.25;;;35.28;;
61254;SDS011;47128;47.530;8.584;2022-12-18T07:18:41;80.85;;;32.60;;
61254;SDS011;47128;47.530;8.584;2022-12-18T07:21:07;78.60;;;32.88;;
61254;SDS011;47128;47.530;8.584;2022-12-18T07:23:35;88.15;;;36.08;;
61254;SDS011;47128;47.530;8.584;2022-12-18T07:26:04;78.57;;;34.22;;
61254;SDS011;47128;47.530;8.584;2022-12-18T07:28:38;78.70;;;32.50;;
61254;SDS011;47128;47.530;8.584;2022-12-18T07:31:09;81.10;;;32.30;;
61254;SDS011;47128;47.530;8.584;2022-12-18T07:33:36;76.97;;;33.75;;
61254;SDS011;47128;47.530;8.584;2022-12-18T07:36:03;89.45;;;34.85;;
61254;SDS011;47128;47.530;8.584;2022-12-18T07:38:32;84.18;;;34.58;;
61254;SDS011;47128;47.530;8.584;2022-12-18T07:41:02;78.68;;;35.08;;
61254;SDS011;47128;47.530;8.584;2022-12-18T07:43:29;89.05;;;34.85;;
61254;SDS011;47128;47.530;8.584;2022-12-18T07:45:55;83.22;;;32.78;;
61254;SDS011;47128;47.530;8.584;2022-12-18T07:48:20;87.88;;;34.90;;
61254;SDS011;47128;47.530;8.584;2022-12-18T07:50:46;86.60;;;33.13;;
61254;SDS011;47128;47.530;8.584;2022-12-18T07:53:12;78.78;;;31.58;;
61254;SDS011;47128;47.530;8.584;2022-12-18T07:55:37;88.43;;;33.75;;
61254;SDS011;47128;47.530;8.584;2022-12-18T07:58:03;94.22;;;35.22;;
61254;SDS011;47128;47.530;8.584;2022-12-18T08:00:29;91.80;;;33.28;;
61254;SDS011;47128;47.530;8.584;2022-12-18T08:02:56;85.18;;;36.40;;
61254;SDS011;47128;47.530;8.584;2022-12-18T08:05:23;81.20;;;35.05;;
61254;SDS011;47128;47.530;8.584;2022-12-18T08:07:48;92.63;;;36.13;;
61254;SDS011;47128;47.530;8.584;2022-12-18T08:10:14;83.22;;;33.10;;
61254;SDS011;47128;47.530;8.584;2022-12-18T08:12:40;80.25;;;34.13;;
61254;SDS011;47128;47.530;8.584;2022-12-18T08:15:06;86.80;;;34.88;;
61254;SDS011;47128;47.530;8.584;2022-12-18T08:17:33;86.75;;;33.92;;
61254;SDS011;47128;47.530;8.584;2022-12-18T08:19:58;85.90;;;35.78;;
61254;SDS011;47128;47.530;8.584;2022-12-18T08:22:24;80.45;;;35.50;;
61254;SDS011;47128;47.530;8.584;2022-12-18T08:24:50;86.95;;;35.03;;
61254;SDS011;47128;47.530;8.584;2022-12-18T08:27:15;78.45;;;33.08;;
61254;SDS011;47128;47.530;8.584;2022-12-18T08:29:41;88.18;;;35.10;;
61254;SDS011;47128;47.530;8.584;2022-12-18T08:32:07;81.32;;;30.92;;
61254;SDS011;47128;47.530;8.584;2022-12-18T08:34:32;81.85;;;33.40;;
61254;SDS011;47128;47.530;8.584;2022-12-18T08:36:58;76.93;;;31.75;;
61254;SDS011;47128;47.530;8.584;2022-12-18T08:39:23;87.60;;;34.80;;
61254;SDS011;47128;47.530;8.584;2022-12-18T08:41:49;85.57;;;34.50;;
61254;SDS011;47128;47.530;8.584;2022-12-18T08:44:33;83.20;;;34.67;;
61254;SDS011;47128;47.530;8.584;2022-12-18T08:47:02;84.75;;;36.55;;
61254;SDS011;47128;47.530;8.584;2022-12-18T08:49:29;80.30;;;35.15;;
61254;SDS011;47128;47.530;8.584;2022-12-18T08:51:55;81.43;;;32.60;;
61254;SDS011;47128;47.530;8.584;2022-12-18T08:54:22;77.78;;;34.35;;
61254;SDS011;47128;47.530;8.584;2022-12-18T08:56:48;79.80;;;33.08;;
61254;SDS011;47128;47.530;8.584;2022-12-18T08:59:17;86.07;;;35.63;;
61254;SDS011;47128;47.530;8.584;2022-12-18T09:01:43;77.68;;;33.15;;
61254;SDS011;47128;47.530;8.584;2022-12-18T09:04:09;75.47;;;34.55;;
61254;SDS011;47128;47.530;8.584;2022-12-18T09:06:35;85.15;;;36.30;;
61254;SDS011;47128;47.530;8.584;2022-12-18T09:09:02;80.35;;;33.75;;
61254;SDS011;47128;47.530;8.584;2022-12-18T09:11:28;76.32;;;33.90;;
61254;SDS011;47128;47.530;8.584;2022-12-18T09:13:54;82.43;;;34.72;;
61254;SDS011;47128;47.530;8.584;2022-12-18T09:16:21;74.53;;;32.15;;
61254;SDS011;47128;47.530;8.584;2022-12-18T09:18:48;72.20;;;32.78;;
61254;SDS011;47128;47.530;8.584;2022-12-18T09:21:17;74.95;;;31.08;;
61254;SDS011;47128;47.530;8.584;2022-12-18T09:23:48;64.53;;;30.77;;
61254;SDS011;47128;47.530;8.584;2022-12-18T09:26:15;73.75;;;31.58;;
61254;SDS011;47128;47.530;8.584;2022-12-18T09:28:41;66.18;;;31.92;;
61254;SDS011;47128;47.530;8.584;2022-12-18T09:31:07;69.53;;;31.92;;
61254;SDS011;47128;47.530;8.584;2022-12-18T09:33:37;63.88;;;28.92;;
61254;SDS011;47128;47.530;8.584;2022-12-18T09:36:04;77.65;;;32.53;;
61254;SDS011;47128;47.530;8.584;2022-12-18T09:38:31;72.13;;;32.40;;
61254;SDS011;47128;47.530;8.584;2022-12-18T09:40:59;66.18;;;30.63;;
61254;SDS011;47128;47.530;8.584;2022-12-18T09:43:33;69.10;;;31.15;;
61254;SDS011;47128;47.530;8.584;2022-12-18T09:46:05;70.03;;;30.67;;
61254;SDS011;47128;47.530;8.584;2022-12-18T09:48:35;65.00;;;28.48;;
61254;SDS011;47128;47.530;8.584;2022-12-18T09:51:12;65.63;;;29.65;;
61254;SDS011;47128;47.530;8.584;2022-12-18T09:53:45;62.13;;;29.73;;
61254;SDS011;47128;47.530;8.584;2022-12-18T09:56:19;82.25;;;34.67;;
61254;SDS011;47128;47.530;8.584;2022-12-18T09:58:57;73.00;;;32.80;;
61254;SDS011;47128;47.530;8.584;2022-12-18T10:01:24;76.80;;;31.88;;
61254;SDS011;47128;47.530;8.584;2022-12-18T10:03:52;70.68;;;30.98;;
61254;SDS011;47128;47.530;8.584;2022-12-18T10:06:21;62.50;;;29.27;;
61254;SDS011;47128;47.530;8.584;2022-12-18T10:11:40;57.33;;;28.33;;
61254;SDS011;47128;47.530;8.584;2022-12-18T10:14:23;69.85;;;31.95;;
61254;SDS011;47128;47.530;8.584;2022-12-18T10:17:00;65.93;;;29.83;;
61254;SDS011;47128;47.530;8.584;2022-12-18T10:22:23;65.70;;;30.08;;
61254;SDS011;47128;47.530;8.584;2022-12-18T10:27:40;68.90;;;32.55;;
61254;SDS011;47128;47.530;8.584;2022-12-18T10:30:13;58.78;;;30.52;;
61254;SDS011;47128;47.530;8.584;2022-12-18T10:32:49;72.45;;;32.88;;
61254;SDS011;47128;47.530;8.584;2022-12-18T10:38:06;66.90;;;31.70;;
61254;SDS011;47128;47.530;8.584;2022-12-18T10:40:32;62.20;;;32.67;;
61254;SDS011;47128;47.530;8.584;2022-12-18T10:43:13;67.82;;;31.15;;
61254;SDS011;47128;47.530;8.584;2022-12-18T10:45:40;61.90;;;31.10;;
61254;SDS011;47128;47.530;8.584;2022-12-18T10:48:22;67.30;;;32.47;;
61254;SDS011;47128;47.530;8.584;2022-12-18T10:50:49;62.97;;;31.67;;
61254;SDS011;47128;47.530;8.584;2022-12-18T10:53:21;59.72;;;32.38;;
61254;SDS011;47128;47.530;8.584;2022-12-18T10:55:49;70.70;;;30.77;;
61254;SDS011;47128;47.530;8.584;2022-12-18T10:58:25;66.25;;;31.85;;
61254;SDS011;47128;47.530;8.584;2022-12-18T11:01:15;66.93;;;30.27;;
61254;SDS011;47128;47.530;8.584;2022-12-18T11:04:07;61.78;;;29.13;;
61254;SDS011;47128;47.530;8.584;2022-12-18T11:06:33;60.78;;;27.88;;
61254;SDS011;47128;47.530;8.584;2022-12-18T11:09:03;53.55;;;28.40;;
61254;SDS011;47128;47.530;8.584;2022-12-18T11:11:31;58.90;;;29.05;;
61254;SDS011;47128;47.530;8.584;2022-12-18T11:16:26;56.78;;;29.52;;
61254;SDS011;47128;47.530;8.584;2022-12-18T11:19:13;60.30;;;27.88;;
61254;SDS011;47128;47.530;8.584;2022-12-18T11:21:49;68.88;;;34.53;;
61254;SDS011;47128;47.530;8.584;2022-12-18T11:24:32;62.55;;;31.58;;
61254;SDS011;47128;47.530;8.584;2022-12-18T11:27:00;55.53;;;28.75;;
61254;SDS011;47128;47.530;8.584;2022-12-18T11:29:35;56.50;;;28.73;;
61254;SDS011;47128;47.530;8.584;2022-12-18T11:34:41;58.40;;;29.50;;
61254;SDS011;47128;47.530;8.584;2022-12-18T11:37:11;61.60;;;29.35;;
61254;SDS011;47128;47.530;8.584;2022-12-18T11:39:42;62.97;;;30.08;;
61254;SDS011;47128;47.530;8.584;2022-12-18T11:44:49;63.92;;;28.23;;
61254;SDS011;47128;47.530;8.584;2022-12-18T11:47:25;61.55;;;28.05;;
61254;SDS011;47128;47.530;8.584;2022-12-18T11:50:13;59.13;;;27.27;;
61254;SDS011;47128;47.530;8.584;2022-12-18T11:52:43;58.40;;;27.67;;
61254;SDS011;47128;47.530;8.584;2022-12-18T11:55:13;57.65;;;29.65;;
61254;SDS011;47128;47.530;8.584;2022-12-18T12:00:21;61.10;;;28.67;;
61254;SDS011;47128;47.530;8.584;2022-12-18T12:08:22;60.67;;;29.50;;
61254;SDS011;47128;47.530;8.584;2022-12-18T12:13:30;58.67;;;29.05;;
61254;SDS011;47128;47.530;8.584;2022-12-18T12:16:22;61.88;;;28.98;;
61254;SDS011;47128;47.530;8.584;2022-12-18T12:21:42;57.33;;;27.77;;
61254;SDS011;47128;47.530;8.584;2022-12-18T12:27:08;55.15;;;27.20;;
61254;SDS011;47128;47.530;8.584;2022-12-18T12:32:22;56.17;;;27.27;;
61254;SDS011;47128;47.530;8.584;2022-12-18T12:37:46;54.35;;;27.48;;
61254;SDS011;47128;47.530;8.584;2022-12-18T12:40:36;54.72;;;27.00;;
61254;SDS011;47128;47.530;8.584;2022-12-18T12:43:25;54.95;;;27.05;;
61254;SDS011;47128;47.530;8.584;2022-12-18T12:48:31;58.20;;;30.02;;
61254;SDS011;47128;47.530;8.584;2022-12-18T12:51:09;59.47;;;28.38;;
61254;SDS011;47128;47.530;8.584;2022-12-18T12:53:50;58.22;;;28.15;;
61254;SDS011;47128;47.530;8.584;2022-12-18T12:56:18;61.10;;;28.83;;
61254;SDS011;47128;47.530;8.584;2022-12-18T12:58:58;60.50;;;28.70;;
61254;SDS011;47128;47.530;8.584;2022-12-18T13:04:12;66.88;;;31.00;;
61254;SDS011;47128;47.530;8.584;2022-12-18T13:06:47;57.38;;;27.40;;
61254;SDS011;47128;47.530;8.584;2022-12-18T13:09:21;65.13;;;29.00;;
61254;SDS011;47128;47.530;8.584;2022-12-18T13:11:46;57.38;;;28.63;;
61254;SDS011;47128;47.530;8.584;2022-12-18T13:14:35;55.58;;;29.17;;
61254;SDS011;47128;47.530;8.584;2022-12-18T13:17:13;57.45;;;29.75;;
61254;SDS011;47128;47.530;8.584;2022-12-18T13:20:02;61.10;;;29.85;;
61254;SDS011;47128;47.530;8.584;2022-12-18T13:22:37;59.20;;;31.63;;
61254;SDS011;47128;47.530;8.584;2022-12-18T13:35:41;61.00;;;29.10;;
61254;SDS011;47128;47.530;8.584;2022-12-18T13:46:02;58.53;;;28.77;;
61254;SDS011;47128;47.530;8.584;2022-12-18T13:48:49;59.70;;;29.38;;
61254;SDS011;47128;47.530;8.584;2022-12-18T13:51:29;62.22;;;30.30;;
61254;SDS011;47128;47.530;8.584;2022-12-18T13:53:58;63.28;;;30.35;;
61254;SDS011;47128;47.530;8.584;2022-12-18T13:56:27;54.92;;;29.48;;
61254;SDS011;47128;47.530;8.584;2022-12-18T14:04:19;61.88;;;30.10;;
61254;SDS011;47128;47.530;8.584;2022-12-18T14:06:48;61.03;;;28.60;;
61254;SDS011;47128;47.530;8.584;2022-12-18T14:09:19;60.70;;;28.23;;
61254;SDS011;47128;47.530;8.584;2022-12-18T14:11:51;57.17;;;28.75;;
61254;SDS011;47128;47.530;8.584;2022-12-18T14:14:18;64.43;;;29.60;;
61254;SDS011;47128;47.530;8.584;2022-12-18T14:16:45;62.72;;;29.17;;
61254;SDS011;47128;47.530;8.584;2022-12-18T14:19:15;61.47;;;29.33;;
61254;SDS011;47128;47.530;8.584;2022-12-18T14:21:47;59.65;;;29.83;;
61254;SDS011;47128;47.530;8.584;2022-12-18T14:24:15;61.33;;;28.13;;
61254;SDS011;47128;47.530;8.584;2022-12-18T14:26:46;62.67;;;29.13;;
61254;SDS011;47128;47.530;8.584;2022-12-18T14:29:26;57.15;;;27.42;;
61254;SDS011;47128;47.530;8.584;2022-12-18T14:32:07;53.00;;;27.75;;
61254;SDS011;47128;47.530;8.584;2022-12-18T14:34:38;61.17;;;28.17;;
61254;SDS011;47128;47.530;8.584;2022-12-18T14:37:04;56.55;;;27.40;;
61254;SDS011;47128;47.530;8.584;2022-12-18T14:39:34;58.67;;;28.27;;
61254;SDS011;47128;47.530;8.584;2022-12-18T14:41:59;58.95;;;28.83;;
61254;SDS011;47128;47.530;8.584;2022-12-18T14:44:25;68.75;;;28.73;;
61254;SDS011;47128;47.530;8.584;2022-12-18T14:46:51;57.47;;;27.00;;
61254;SDS011;47128;47.530;8.584;2022-12-18T14:51:52;62.42;;;27.50;;
61254;SDS011;47128;47.530;8.584;2022-12-18T14:54:20;65.85;;;30.77;;
61254;SDS011;47128;47.530;8.584;2022-12-18T14:56:51;66.32;;;28.92;;
61254;SDS011;47128;47.530;8.584;2022-12-18T14:59:21;64.35;;;28.52;;
61254;SDS011;47128;47.530;8.584;2022-12-18T15:01:53;58.10;;;28.70;;
61254;SDS011;47128;47.530;8.584;2022-12-18T15:04:35;64.60;;;28.92;;
61254;SDS011;47128;47.530;8.584;2022-12-18T15:07:20;58.85;;;28.63;;
61254;SDS011;47128;47.530;8.584;2022-12-18T15:10:09;64.97;;;28.55;;
61254;SDS011;47128;47.530;8.584;2022-12-18T15:15:04;59.35;;;28.80;;
61254;SDS011;47128;47.530;8.584;2022-12-18T15:17:56;63.20;;;27.88;;
61254;SDS011;47128;47.530;8.584;2022-12-18T15:20:22;65.35;;;29.67;;
61254;SDS011;47128;47.530;8.584;2022-12-18T15:22:48;66.13;;;28.00;;
61254;SDS011;47128;47.530;8.584;2022-12-18T15:25:24;63.80;;;27.88;;
61254;SDS011;47128;47.530;8.584;2022-12-18T15:27:57;65.68;;;27.55;;
61254;SDS011;47128;47.530;8.584;2022-12-18T15:30:24;66.55;;;29.13;;
61254;SDS011;47128;47.530;8.584;2022-12-18T15:32:50;63.47;;;27.40;;
61254;SDS011;47128;47.530;8.584;2022-12-18T15:35:19;64.03;;;28.88;;
61254;SDS011;47128;47.530;8.584;2022-12-18T15:37:46;61.78;;;25.90;;
61254;SDS011;47128;47.530;8.584;2022-12-18T15:40:14;65.80;;;29.73;;
61254;SDS011;47128;47.530;8.584;2022-12-18T15:42:41;68.78;;;29.98;;
61254;SDS011;47128;47.530;8.584;2022-12-18T15:45:26;65.45;;;29.58;;
61254;SDS011;47128;47.530;8.584;2022-12-18T15:47:51;64.85;;;28.95;;
61254;SDS011;47128;47.530;8.584;2022-12-18T15:50:17;63.47;;;28.15;;
61254;SDS011;47128;47.530;8.584;2022-12-18T15:52:43;62.45;;;28.30;;
61254;SDS011;47128;47.530;8.584;2022-12-18T15:55:12;65.20;;;29.02;;
61254;SDS011;47128;47.530;8.584;2022-12-18T15:57:57;64.65;;;26.95;;
61254;SDS011;47128;47.530;8.584;2022-12-18T16:00:23;63.58;;;29.33;;
61254;SDS011;47128;47.530;8.584;2022-12-18T16:02:49;68.82;;;28.48;;
61254;SDS011;47128;47.530;8.584;2022-12-18T16:05:15;64.63;;;27.75;;
61254;SDS011;47128;47.530;8.584;2022-12-18T16:07:42;58.22;;;28.33;;
61254;SDS011;47128;47.530;8.584;2022-12-18T16:10:09;66.53;;;29.38;;
61254;SDS011;47128;47.530;8.584;2022-12-18T16:12:35;61.78;;;27.83;;
61254;SDS011;47128;47.530;8.584;2022-12-18T16:15:00;57.85;;;27.00;;
61254;SDS011;47128;47.530;8.584;2022-12-18T16:17:26;59.20;;;26.73;;